createdAt,value
2022-10-14T00:01:15.673Z,11.82
2022-10-14T00:03:43.790Z,11.13
2022-10-14T00:06:14.150Z,11.85
2022-10-14T00:08:44.909Z,11.52
2022-10-14T00:11:14.947Z,10.35
2022-10-14T00:13:42.794Z,11.95
2022-10-14T00:16:17.339Z,11.00
2022-10-14T00:18:45.550Z,11.57
2022-10-14T00:21:13.256Z,11.25
2022-10-14T00:23:41.419Z,11.32
2022-10-14T00:26:16.733Z,10.43
2022-10-14T00:28:44.782Z,10.52
2022-10-14T00:31:13.093Z,9.55
2022-10-14T00:33:40.958Z,9.93
2022-10-14T00:36:10.376Z,10.48
2022-10-14T00:38:39.475Z,10.77
2022-10-14T00:41:08.484Z,10.48
2022-10-14T00:46:33.533Z,11.10
2022-10-14T00:49:05.378Z,10.40
2022-10-14T00:51:34.641Z,10.75
2022-10-14T00:54:03.035Z,10.13
2022-10-14T00:56:31.976Z,11.77
2022-10-14T00:59:02.416Z,10.68
2022-10-14T01:01:32.010Z,10.38
2022-10-14T01:03:59.680Z,10.55
2022-10-14T01:06:42.937Z,10.98
2022-10-14T01:09:21.094Z,11.13
2022-10-14T01:12:26.754Z,11.15
2022-10-14T01:14:59.949Z,10.30
2022-10-14T01:17:40.362Z,11.18
2022-10-14T01:20:34.802Z,10.98
2022-10-14T01:23:20.914Z,10.73
2022-10-14T01:25:58.173Z,11.07
2022-10-14T01:28:38.501Z,11.95
2022-10-14T01:31:12.326Z,11.65
2022-10-14T01:33:44.500Z,11.25
2022-10-14T01:36:19.480Z,11.60
2022-10-14T01:38:52.486Z,10.63
2022-10-14T01:41:24.847Z,11.48
2022-10-14T01:43:55.249Z,10.63
2022-10-14T01:46:28.106Z,10.85
2022-10-14T01:49:00.520Z,11.10
2022-10-14T01:51:31.751Z,10.90
2022-10-14T01:54:04.417Z,11.13
2022-10-14T01:56:40.164Z,11.77
2022-10-14T01:59:11.991Z,10.95
2022-10-14T02:01:41.740Z,10.07
2022-10-14T02:04:17.190Z,10.75
2022-10-14T02:09:23.819Z,10.68
2022-10-14T02:12:05.214Z,10.48
2022-10-14T02:14:40.777Z,10.00
2022-10-14T02:17:19.405Z,9.50
2022-10-14T02:19:51.931Z,10.43
2022-10-14T02:22:26.910Z,9.85
2022-10-14T02:24:58.994Z,10.95
2022-10-14T02:27:29.845Z,10.05
2022-10-14T02:30:01.018Z,9.95
2022-10-14T02:32:32.270Z,9.55
2022-10-14T02:35:02.436Z,9.43
2022-10-14T02:37:33.323Z,9.23
2022-10-14T02:40:09.051Z,9.57
2022-10-14T02:42:37.342Z,9.48
2022-10-14T02:45:06.144Z,9.82
2022-10-14T02:47:35.704Z,9.00
2022-10-14T02:50:04.848Z,10.02
2022-10-14T02:52:32.534Z,9.73
2022-10-14T02:55:00.817Z,9.77
2022-10-14T02:57:29.093Z,9.30
2022-10-14T02:59:56.754Z,9.82
2022-10-14T03:02:24.869Z,9.55
2022-10-14T03:04:54.402Z,9.00
2022-10-14T03:07:22.082Z,8.55
2022-10-14T03:09:50.149Z,9.00
2022-10-14T03:12:18.447Z,8.88
2022-10-14T03:14:46.145Z,8.90
2022-10-14T03:17:13.847Z,9.95
2022-10-14T03:19:41.663Z,9.52
2022-10-14T03:22:10.715Z,10.27
2022-10-14T03:24:39.323Z,8.68
2022-10-14T03:27:07.579Z,8.40
2022-10-14T03:29:35.265Z,8.65
2022-10-14T03:32:03.434Z,9.77
2022-10-14T03:34:31.601Z,8.88
2022-10-14T03:36:59.321Z,9.02
2022-10-14T03:39:28.698Z,8.85
2022-10-14T03:41:56.868Z,8.40
2022-10-14T03:44:24.572Z,8.73
2022-10-14T03:46:52.814Z,8.50
2022-10-14T03:49:21.131Z,8.50
2022-10-14T03:51:48.808Z,8.32
2022-10-14T03:54:17.103Z,8.25
2022-10-14T03:56:46.634Z,8.18
2022-10-14T03:59:14.304Z,8.65
2022-10-14T04:01:42.634Z,8.27
2022-10-14T04:04:10.969Z,8.38
2022-10-14T04:06:38.746Z,8.10
2022-10-14T04:09:06.899Z,8.38
2022-10-14T04:11:35.147Z,8.88
2022-10-14T04:14:04.245Z,9.40
2022-10-14T04:16:32.361Z,8.30
2022-10-14T04:19:00.527Z,9.40
2022-10-14T04:21:28.291Z,9.73
2022-10-14T04:23:56.272Z,8.32
2022-10-14T04:26:24.401Z,8.85
2022-10-14T04:28:52.220Z,9.27
2022-10-14T04:31:23.101Z,10.27
2022-10-14T04:33:51.285Z,9.60
2022-10-14T04:36:18.968Z,9.23
2022-10-14T04:38:47.368Z,9.88
2022-10-14T04:41:15.135Z,8.90
2022-10-14T04:43:42.787Z,9.20
2022-10-14T04:46:10.956Z,9.88
2022-10-14T04:48:40.810Z,10.07
2022-10-14T04:51:08.489Z,9.50
2022-10-14T04:53:36.627Z,10.48
2022-10-14T04:56:04.882Z,9.80
2022-10-14T04:58:32.586Z,9.35
2022-10-14T05:01:00.531Z,10.25
2022-10-14T05:03:28.789Z,10.13
2022-10-14T05:05:57.829Z,11.40
2022-10-14T05:08:25.958Z,11.60
2022-10-14T05:10:54.038Z,11.07
2022-10-14T05:13:21.706Z,11.40
2022-10-14T05:15:50.065Z,10.50
2022-10-14T05:18:17.875Z,10.77
2022-10-14T05:20:45.822Z,12.43
2022-10-14T05:23:15.606Z,11.85
2022-10-14T05:25:43.944Z,11.07
2022-10-14T05:28:11.630Z,10.27
2022-10-14T05:30:39.661Z,11.18
2022-10-14T05:33:07.890Z,10.30
2022-10-14T05:35:57.600Z,10.77
2022-10-14T05:38:24.956Z,9.80
2022-10-14T05:40:53.657Z,11.25
2022-10-14T05:43:21.554Z,11.75
2022-10-14T05:45:49.654Z,10.18
2022-10-14T05:48:17.923Z,10.85
2022-10-14T05:50:45.774Z,10.38
2022-10-14T05:53:14.253Z,10.98
2022-10-14T05:55:43.508Z,10.75
2022-10-14T05:58:11.187Z,10.60
2022-10-14T06:00:39.482Z,10.13
2022-10-14T06:03:07.345Z,9.00
2022-10-14T06:05:38.112Z,10.13
2022-10-14T06:08:06.248Z,9.82
2022-10-14T06:10:35.453Z,9.15
2022-10-14T06:13:04.607Z,8.88
2022-10-14T06:15:32.349Z,7.90
2022-10-14T06:18:00.316Z,7.15
2022-10-14T06:20:28.069Z,8.43
2022-10-14T06:22:55.743Z,7.93
2022-10-14T06:25:23.878Z,8.90
2022-10-14T06:27:51.556Z,9.10
2022-10-14T06:30:21.226Z,8.85
2022-10-14T06:32:48.920Z,7.82
2022-10-14T06:35:17.187Z,8.25
2022-10-14T06:37:46.889Z,9.10
2022-10-14T06:40:15.002Z,9.38
2022-10-14T06:42:42.781Z,9.00
2022-10-14T06:45:11.655Z,8.73
2022-10-14T06:47:40.973Z,8.98
2022-10-14T06:50:12.318Z,9.82
2022-10-14T06:52:40.991Z,10.07
2022-10-14T06:55:09.590Z,9.77
2022-10-14T06:57:37.851Z,10.57
2022-10-14T07:00:07.053Z,9.43
2022-10-14T07:02:34.967Z,9.80
2022-10-14T07:05:04.142Z,9.88
2022-10-14T07:07:32.956Z,9.68
2022-10-14T07:10:00.903Z,9.95
2022-10-14T07:12:29.163Z,10.02
2022-10-14T07:14:57.028Z,10.10
2022-10-14T07:17:25.011Z,9.20
2022-10-14T07:19:52.883Z,9.60
2022-10-14T07:22:22.172Z,10.57
2022-10-14T07:24:50.031Z,9.45
2022-10-14T07:27:18.814Z,9.23
2022-10-14T07:29:46.995Z,8.98
2022-10-14T07:32:14.793Z,9.30
2022-10-14T07:34:42.658Z,9.70
2022-10-14T07:37:10.499Z,10.13
2022-10-14T07:39:40.210Z,9.93
2022-10-14T07:42:07.898Z,8.52
2022-10-14T07:44:37.079Z,9.73
2022-10-14T07:47:05.924Z,8.77
2022-10-14T07:49:33.672Z,8.82
2022-10-14T07:52:01.358Z,7.55
2022-10-14T07:54:31.223Z,8.15
2022-10-14T07:57:00.297Z,7.55
2022-10-14T07:59:28.359Z,7.72
2022-10-14T08:01:56.723Z,8.98
2022-10-14T08:04:25.212Z,8.23
2022-10-14T08:06:54.100Z,8.18
2022-10-14T08:09:22.096Z,7.72
2022-10-14T08:11:50.335Z,7.63
2022-10-14T08:14:19.543Z,6.78
2022-10-14T08:16:48.009Z,6.65
2022-10-14T08:19:16.190Z,7.25
2022-10-14T08:21:44.997Z,7.13
2022-10-14T08:24:16.438Z,6.80
2022-10-14T08:26:51.682Z,7.88
2022-10-14T08:29:23.962Z,7.97
2022-10-14T08:31:55.640Z,7.88
2022-10-14T08:34:25.497Z,6.88
2022-10-14T08:41:00.339Z,17.85
2022-10-14T08:43:34.649Z,15.23
2022-10-14T08:46:12.415Z,29.23
2022-10-14T08:48:41.083Z,12.57
2022-10-14T08:51:15.248Z,26.85
2022-10-14T08:53:47.391Z,10.05
2022-10-14T08:56:16.237Z,10.15
2022-10-14T08:58:48.283Z,10.95
2022-10-14T09:01:27.267Z,19.13
2022-10-14T09:04:04.127Z,7.22
2022-10-14T09:06:35.395Z,15.50
2022-10-14T09:09:10.559Z,6.15
2022-10-14T09:11:44.439Z,4.90
2022-10-14T09:14:21.271Z,5.03
2022-10-14T09:16:59.254Z,17.08
2022-10-14T09:19:36.566Z,16.10
2022-10-14T09:22:04.396Z,5.03
2022-10-14T09:24:37.121Z,8.82
2022-10-14T09:27:09.277Z,3.45
2022-10-14T09:29:45.280Z,6.00
2022-10-14T09:32:28.585Z,4.82
2022-10-14T09:35:00.119Z,4.05
2022-10-14T09:37:30.772Z,5.63
2022-10-14T09:40:02.305Z,6.82
2022-10-14T09:42:43.352Z,9.57
2022-10-14T09:45:13.509Z,2.05
2022-10-14T09:52:01.196Z,1.75
2022-10-14T09:54:32.075Z,2.17
2022-10-14T09:57:04.016Z,3.33
2022-10-14T09:59:36.241Z,1.83
2022-10-14T10:02:09.637Z,1.67
2022-10-14T10:04:48.094Z,1.70
2022-10-14T10:07:36.394Z,1.77
2022-10-14T10:10:23.384Z,3.42
2022-10-14T10:13:01.632Z,1.98
2022-10-14T10:15:36.302Z,4.05
2022-10-14T12:00:21.428Z,10.32
2022-10-14T12:02:55.711Z,9.68
2022-10-14T12:05:31.427Z,8.20
2022-10-14T12:08:10.699Z,8.07
2022-10-14T12:10:44.839Z,9.88
2022-10-14T12:13:16.822Z,9.88
2022-10-14T12:15:51.686Z,8.77
2022-10-14T12:18:20.367Z,8.75
2022-10-14T12:20:54.063Z,8.07
2022-10-14T12:23:32.766Z,11.48
2022-10-14T12:26:07.733Z,34.20
2022-10-14T12:28:38.215Z,19.73
2022-10-14T12:31:33.848Z,21.17
2022-10-14T12:34:34.770Z,15.77
2022-10-14T12:37:50.261Z,10.27
2022-10-14T12:40:25.718Z,9.27
2022-10-14T12:43:14.406Z,32.92
2022-10-14T12:45:52.057Z,43.55
2022-10-14T12:48:23.627Z,9.52
2022-10-14T12:50:57.233Z,27.05
2022-10-14T12:53:27.927Z,17.90
2022-10-14T12:55:59.569Z,10.45
2022-10-14T12:58:38.013Z,26.13
2022-10-14T13:01:17.833Z,22.73
2022-10-14T13:03:59.303Z,12.30
2022-10-14T16:27:21.403Z,4.07
2022-10-14T16:29:49.615Z,2.50
2022-10-14T16:32:17.962Z,3.90
2022-10-14T16:34:47.141Z,3.95
2022-10-14T16:37:14.823Z,3.00
2022-10-14T16:39:42.475Z,2.67
2022-10-14T16:42:10.695Z,3.05
2022-10-14T16:44:39.810Z,3.58
2022-10-14T16:47:20.758Z,4.65
2022-10-14T16:49:51.843Z,3.83
2022-10-14T16:52:21.421Z,2.80
2022-10-14T16:54:49.477Z,2.80
2022-10-14T16:57:17.175Z,2.60
2022-10-14T16:59:46.960Z,2.42
2022-10-14T17:02:17.340Z,3.83
2022-10-14T17:04:47.095Z,3.75
2022-10-14T17:07:17.636Z,3.58
2022-10-14T17:09:45.383Z,3.35
2022-10-14T17:12:14.256Z,2.53
2022-10-14T17:14:42.884Z,2.60
2022-10-14T17:17:13.500Z,2.80
2022-10-14T17:19:43.360Z,2.40
2022-10-14T17:22:11.141Z,2.58
2022-10-14T17:24:39.287Z,2.00
2022-10-14T17:27:06.955Z,2.20
2022-10-14T17:29:34.771Z,1.85
2022-10-14T17:32:02.655Z,1.60
2022-10-14T17:34:32.748Z,2.38
2022-10-14T17:37:00.583Z,2.10
2022-10-14T17:39:29.889Z,2.30
2022-10-14T17:42:00.650Z,2.45
2022-10-14T17:44:29.827Z,2.38
2022-10-14T17:46:59.254Z,2.50
2022-10-14T17:49:27.004Z,2.00
2022-10-14T17:51:56.226Z,2.13
2022-10-14T17:54:23.845Z,2.60
2022-10-14T17:56:51.489Z,2.25
2022-10-14T17:59:19.326Z,1.90
2022-10-14T18:02:02.208Z,2.22
2022-10-14T18:04:32.774Z,1.92
2022-10-14T18:07:02.182Z,2.20
2022-10-14T18:09:29.835Z,2.45
2022-10-14T18:12:13.405Z,2.17
2022-10-14T18:14:41.428Z,2.08
2022-10-14T18:17:11.114Z,4.88
2022-10-14T18:19:39.364Z,10.57
2022-10-14T18:22:10.011Z,11.00
2022-10-14T18:24:39.386Z,9.52
2022-10-14T18:27:07.306Z,10.00
2022-10-14T18:29:34.971Z,11.05
2022-10-14T18:32:02.874Z,10.95
2022-10-14T18:34:30.752Z,11.82
2022-10-14T18:36:58.501Z,10.30
2022-10-14T18:39:28.211Z,15.35
2022-10-14T18:41:55.882Z,15.48
2022-10-14T18:44:26.509Z,21.23
2022-10-14T18:46:54.650Z,23.65
2022-10-14T18:49:24.274Z,29.27
2022-10-14T18:51:56.230Z,16.05
2022-10-14T18:54:24.882Z,13.18
2022-10-14T18:56:54.837Z,10.05
2022-10-14T18:59:24.794Z,11.57
2022-10-14T19:01:53.394Z,20.92
2022-10-14T19:04:24.036Z,15.30
2022-10-14T19:06:53.364Z,10.43
2022-10-14T19:09:24.621Z,10.45
2022-10-14T19:11:55.422Z,8.25
2022-10-14T19:14:23.115Z,7.35
2022-10-14T19:16:50.873Z,7.22
2022-10-14T19:19:20.894Z,6.90
2022-10-14T19:21:50.335Z,7.85
2022-10-14T19:24:18.153Z,6.85
2022-10-14T19:26:47.883Z,6.03
2022-10-14T19:29:17.921Z,6.07
2022-10-14T19:31:45.871Z,6.63
2022-10-14T19:34:17.055Z,7.38
2022-10-14T19:36:45.798Z,8.43
2022-10-14T19:39:17.855Z,6.43
2022-10-14T19:41:47.298Z,7.65
2022-10-14T19:44:18.488Z,6.95
2022-10-14T19:46:47.601Z,6.05
2022-10-14T19:49:16.785Z,13.73
2022-10-14T19:51:46.534Z,15.93
2022-10-14T19:54:14.591Z,13.02
2022-10-14T19:56:42.802Z,19.83
2022-10-14T19:59:14.347Z,12.25
2022-10-14T20:01:43.460Z,7.85
2022-10-14T20:04:11.267Z,12.02
2022-10-14T20:06:40.329Z,8.48
2022-10-14T20:09:08.954Z,6.60
2022-10-14T20:11:36.966Z,8.63
2022-10-14T20:14:04.603Z,6.90
2022-10-14T20:16:32.282Z,7.50
2022-10-14T20:19:01.860Z,10.40
2022-10-14T20:21:30.443Z,10.25
2022-10-14T20:23:59.107Z,7.13
2022-10-14T20:26:27.247Z,6.05
2022-10-14T20:28:55.805Z,5.00
2022-10-14T20:31:26.138Z,6.45
2022-10-14T20:33:56.575Z,6.38
2022-10-14T20:36:25.666Z,18.08
2022-10-14T20:38:53.607Z,15.55
2022-10-14T20:41:22.857Z,13.13
2022-10-14T20:43:51.378Z,11.98
2022-10-14T20:46:19.671Z,10.98
2022-10-14T20:48:47.587Z,8.23
2022-10-14T20:51:17.568Z,8.23
2022-10-14T20:53:46.841Z,8.70
2022-10-14T20:56:15.143Z,9.73
2022-10-14T20:58:43.832Z,10.10
2022-10-14T21:01:15.074Z,9.55
2022-10-14T21:03:44.938Z,10.68
2022-10-14T21:06:15.721Z,13.85
2022-10-14T21:08:44.799Z,13.88
2022-10-14T21:11:17.070Z,14.02
2022-10-14T21:13:46.752Z,15.07
2022-10-14T21:16:16.782Z,13.45
2022-10-14T21:18:49.120Z,13.57
2022-10-14T21:21:18.552Z,13.93
2022-10-14T21:23:46.604Z,13.38
2022-10-14T21:26:16.386Z,13.52
2022-10-14T21:28:44.477Z,14.20
2022-10-14T21:31:17.516Z,14.73
2022-10-14T21:33:47.083Z,12.73
2022-10-14T21:36:16.962Z,11.63
2022-10-14T21:38:45.392Z,11.07
2022-10-14T21:41:13.212Z,10.70
2022-10-14T21:43:42.742Z,10.35
2022-10-14T21:46:12.328Z,10.40
2022-10-14T21:48:40.896Z,10.88
2022-10-14T21:51:11.635Z,12.00
2022-10-14T21:53:40.381Z,13.48
2022-10-14T21:56:09.204Z,11.55
2022-10-14T21:58:37.509Z,14.75
2022-10-14T22:01:08.546Z,13.70
2022-10-14T22:03:37.751Z,14.95
2022-10-14T22:06:08.172Z,15.75
2022-10-14T22:08:38.353Z,11.77
2022-10-14T22:11:07.579Z,11.50
2022-10-14T22:13:36.325Z,9.40
2022-10-14T22:16:04.347Z,10.88
2022-10-14T22:18:33.545Z,12.02
2022-10-14T22:21:05.325Z,11.88
2022-10-14T22:23:33.116Z,14.00
2022-10-14T22:26:02.154Z,14.27
2022-10-14T22:28:31.358Z,14.43
2022-10-14T22:31:05.360Z,14.73
2022-10-14T22:33:38.192Z,14.85
2022-10-14T22:36:07.224Z,15.25
2022-10-14T22:38:35.157Z,16.25
2022-10-14T22:41:03.598Z,16.60
2022-10-14T22:43:31.380Z,15.50
2022-10-14T22:46:03.825Z,15.45
2022-10-14T22:48:32.600Z,14.98
2022-10-14T22:51:05.435Z,15.80
2022-10-14T22:53:33.263Z,16.00
2022-10-14T22:56:01.482Z,18.42
2022-10-14T22:58:30.452Z,19.70
2022-10-14T23:00:58.190Z,18.10
2022-10-14T23:03:27.198Z,16.85
2022-10-14T23:06:00.753Z,17.75
2022-10-14T23:08:30.583Z,20.38
2022-10-14T23:10:58.475Z,22.55
2022-10-14T23:13:26.923Z,24.15
2022-10-14T23:15:58.511Z,23.65
2022-10-14T23:18:27.913Z,21.48
2022-10-14T23:20:56.283Z,22.70
2022-10-14T23:23:24.351Z,24.30
2022-10-14T23:25:53.757Z,22.48
2022-10-14T23:28:21.511Z,22.67
2022-10-14T23:30:49.184Z,22.40
2022-10-14T23:33:17.381Z,22.23
2022-10-14T23:35:45.018Z,22.52
2022-10-14T23:38:13.415Z,21.25
2022-10-14T23:40:41.497Z,21.65
2022-10-14T23:43:10.541Z,21.77
2022-10-14T23:45:38.683Z,21.70
2022-10-14T23:48:07.540Z,22.67
2022-10-14T23:50:35.723Z,20.67
2022-10-14T23:53:03.810Z,22.00
2022-10-14T23:55:31.544Z,21.92
2022-10-14T23:57:59.770Z,21.65
